sensor_id;sensor_type;location;lat;lon;timestamp;pressure;altitude;pressure_sealevel;temperature;humidity
67038;BME280;53940;53.204;6.590;2023-10-19T00:00:37;99557.53;;;21.03;43.99
67038;BME280;53940;53.204;6.590;2023-10-19T00:03:44;99550.00;;;21.06;43.98
67038;BME280;53940;53.204;6.590;2023-10-19T00:06:44;99538.94;;;21.09;43.95
67038;BME280;53940;53.204;6.590;2023-10-19T00:09:45;99546.63;;;21.12;43.68
67038;BME280;53940;53.204;6.590;2023-10-19T00:12:47;99548.13;;;21.15;43.97
67038;BME280;53940;53.204;6.590;2023-10-19T00:15:57;99531.50;;;21.20;43.80
67038;BME280;53940;53.204;6.590;2023-10-19T00:18:58;99525.81;;;21.23;43.59
67038;BME280;53940;53.204;6.590;2023-10-19T00:22:00;99510.22;;;21.26;43.48
67038;BME280;53940;53.204;6.590;2023-10-19T00:25:08;99511.56;;;21.31;43.55
67038;BME280;53940;53.204;6.590;2023-10-19T00:28:13;99499.66;;;21.33;43.43
67038;BME280;53940;53.204;6.590;2023-10-19T00:31:16;99491.06;;;21.38;43.28
67038;BME280;53940;53.204;6.590;2023-10-19T00:34:16;99484.31;;;21.42;43.17
67038;BME280;53940;53.204;6.590;2023-10-19T00:37:16;99485.81;;;21.45;43.18
67038;BME280;53940;53.204;6.590;2023-10-19T00:40:20;99478.09;;;21.50;43.27
67038;BME280;53940;53.204;6.590;2023-10-19T00:43:34;99471.53;;;21.52;43.18
67038;BME280;53940;53.204;6.590;2023-10-19T00:46:43;99472.47;;;21.60;43.19
67038;BME280;53940;53.204;6.590;2023-10-19T00:49:47;99470.28;;;21.63;42.85
67038;BME280;53940;53.204;6.590;2023-10-19T00:52:48;99468.91;;;21.67;42.88
67038;BME280;53940;53.204;6.590;2023-10-19T00:55:52;99454.34;;;21.70;42.96
67038;BME280;53940;53.204;6.590;2023-10-19T00:58:53;99453.00;;;21.74;42.96
67038;BME280;53940;53.204;6.590;2023-10-19T01:01:57;99457.81;;;21.79;42.86
67038;BME280;53940;53.204;6.590;2023-10-19T01:05:15;99441.34;;;21.82;42.68
67038;BME280;53940;53.204;6.590;2023-10-19T01:08:21;99432.56;;;21.88;42.71
67038;BME280;53940;53.204;6.590;2023-10-19T01:11:42;99429.16;;;21.94;42.57
67038;BME280;53940;53.204;6.590;2023-10-19T01:15:21;99424.09;;;22.00;42.12
67038;BME280;53940;53.204;6.590;2023-10-19T01:18:24;99423.34;;;22.06;42.69
67038;BME280;53940;53.204;6.590;2023-10-19T01:21:29;99418.28;;;22.11;42.47
67038;BME280;53940;53.204;6.590;2023-10-19T01:24:37;99422.28;;;22.15;42.39
67038;BME280;53940;53.204;6.590;2023-10-19T01:27:41;99405.78;;;22.18;42.63
67038;BME280;53940;53.204;6.590;2023-10-19T01:30:45;99410.78;;;22.21;42.53
67038;BME280;53940;53.204;6.590;2023-10-19T01:33:51;99405.03;;;22.25;42.56
67038;BME280;53940;53.204;6.590;2023-10-19T01:36:54;99394.97;;;22.27;42.55
67038;BME280;53940;53.204;6.590;2023-10-19T01:39:55;99384.72;;;22.30;42.53
67038;BME280;53940;53.204;6.590;2023-10-19T01:42:57;99392.56;;;22.32;42.53
67038;BME280;53940;53.204;6.590;2023-10-19T01:46:01;99387.84;;;22.34;42.51
67038;BME280;53940;53.204;6.590;2023-10-19T01:49:05;99398.19;;;22.37;42.56
67038;BME280;53940;53.204;6.590;2023-10-19T01:52:06;99390.16;;;22.37;42.29
67038;BME280;53940;53.204;6.590;2023-10-19T01:55:07;99381.75;;;22.40;42.53
67038;BME280;53940;53.204;6.590;2023-10-19T01:58:07;99379.69;;;22.42;42.85
67038;BME280;53940;53.204;6.590;2023-10-19T02:01:09;99363.59;;;22.42;42.53
67038;BME280;53940;53.204;6.590;2023-10-19T02:04:12;99353.69;;;22.43;42.66
67038;BME280;53940;53.204;6.590;2023-10-19T02:07:13;99355.34;;;22.44;42.50
67038;BME280;53940;53.204;6.590;2023-10-19T02:10:18;99345.44;;;22.44;42.54
67038;BME280;53940;53.204;6.590;2023-10-19T02:13:21;99345.44;;;22.44;42.37
67038;BME280;53940;53.204;6.590;2023-10-19T02:16:22;99335.53;;;22.45;42.65
67038;BME280;53940;53.204;6.590;2023-10-19T02:19:23;99342.56;;;22.46;42.76
67038;BME280;53940;53.204;6.590;2023-10-19T02:22:25;99343.41;;;22.46;42.56
67038;BME280;53940;53.204;6.590;2023-10-19T02:25:25;99336.38;;;22.45;42.66
67038;BME280;53940;53.204;6.590;2023-10-19T02:28:29;99325.66;;;22.45;42.64
67038;BME280;53940;53.204;6.590;2023-10-19T02:31:32;99321.94;;;22.46;42.55
67038;BME280;53940;53.204;6.590;2023-10-19T02:34:33;99321.94;;;22.46;42.65
67038;BME280;53940;53.204;6.590;2023-10-19T02:37:35;99318.41;;;22.46;42.66
67038;BME280;53940;53.204;6.590;2023-10-19T02:40:35;99313.03;;;22.46;42.73
67038;BME280;53940;53.204;6.590;2023-10-19T02:43:37;99309.53;;;22.45;42.67
67038;BME280;53940;53.204;6.590;2023-10-19T02:46:38;99312.00;;;22.47;42.77
67038;BME280;53940;53.204;6.590;2023-10-19T02:49:39;99300.47;;;22.46;42.99
67038;BME280;53940;53.204;6.590;2023-10-19T02:52:39;99305.84;;;22.46;42.56
67038;BME280;53940;53.204;6.590;2023-10-19T02:55:41;99302.31;;;22.46;42.60
67038;BME280;53940;53.204;6.590;2023-10-19T02:58:45;99304.16;;;22.45;42.71
67038;BME280;53940;53.204;6.590;2023-10-19T03:01:54;99297.13;;;22.44;42.59
67038;BME280;53940;53.204;6.590;2023-10-19T03:05:15;99291.75;;;22.44;42.85
67038;BME280;53940;53.204;6.590;2023-10-19T03:08:17;99285.38;;;22.45;42.84
67038;BME280;53940;53.204;6.590;2023-10-19T03:11:19;99275.63;;;22.44;42.80
67038;BME280;53940;53.204;6.590;2023-10-19T03:14:20;99279.16;;;22.45;42.95
67038;BME280;53940;53.204;6.590;2023-10-19T03:17:20;99268.63;;;22.43;42.95
67038;BME280;53940;53.204;6.590;2023-10-19T03:20:20;99263.25;;;22.43;42.99
67038;BME280;53940;53.204;6.590;2023-10-19T03:23:24;99273.97;;;22.43;43.08
67038;BME280;53940;53.204;6.590;2023-10-19T03:26:24;99261.59;;;22.42;43.08
67038;BME280;53940;53.204;6.590;2023-10-19T03:29:31;99261.59;;;22.42;42.90
67038;BME280;53940;53.204;6.590;2023-10-19T03:32:32;99259.94;;;22.41;42.96
67038;BME280;53940;53.204;6.590;2023-10-19T03:35:32;99254.94;;;22.38;42.76
67038;BME280;53940;53.204;6.590;2023-10-19T03:38:35;99254.13;;;22.38;43.11
67038;BME280;53940;53.204;6.590;2023-10-19T03:41:37;99253.28;;;22.37;42.96
67038;BME280;53940;53.204;6.590;2023-10-19T03:44:40;99250.78;;;22.35;43.21
67038;BME280;53940;53.204;6.590;2023-10-19T03:47:40;99242.94;;;22.34;43.18
67038;BME280;53940;53.204;6.590;2023-10-19T03:50:43;99246.63;;;22.33;43.11
67038;BME280;53940;53.204;6.590;2023-10-19T03:53:44;99239.59;;;22.32;43.13
67038;BME280;53940;53.204;6.590;2023-10-19T03:56:51;99237.47;;;22.27;42.96
67038;BME280;53940;53.204;6.590;2023-10-19T03:59:52;99245.34;;;22.29;43.38
67038;BME280;53940;53.204;6.590;2023-10-19T04:02:56;99240.34;;;22.26;43.60
67038;BME280;53940;53.204;6.590;2023-10-19T04:05:58;99244.03;;;22.25;43.52
67038;BME280;53940;53.204;6.590;2023-10-19T04:09:01;99240.72;;;22.23;43.63
67038;BME280;53940;53.204;6.590;2023-10-19T04:12:01;99237.41;;;22.20;43.95
67038;BME280;53940;53.204;6.590;2023-10-19T04:15:04;99232.41;;;22.17;43.67
67038;BME280;53940;53.204;6.590;2023-10-19T04:18:17;99226.41;;;22.15;43.57
67038;BME280;53940;53.204;6.590;2023-10-19T04:21:18;99227.63;;;22.13;43.84
67038;BME280;53940;53.204;6.590;2023-10-19T04:24:18;99221.63;;;22.11;43.87
67038;BME280;53940;53.204;6.590;2023-10-19T04:27:19;99226.50;;;22.07;43.91
67038;BME280;53940;53.204;6.590;2023-10-19T04:30:23;99233.91;;;22.05;43.87
67038;BME280;53940;53.204;6.590;2023-10-19T04:33:24;99228.09;;;22.01;43.67
67038;BME280;53940;53.204;6.590;2023-10-19T04:36:27;99224.78;;;21.99;43.92
67038;BME280;53940;53.204;6.590;2023-10-19T04:39:27;99227.63;;;21.98;43.74
67038;BME280;53940;53.204;6.590;2023-10-19T04:42:30;99227.19;;;21.94;43.90
67038;BME280;53940;53.204;6.590;2023-10-19T04:45:32;99219.31;;;21.92;43.79
67038;BME280;53940;53.204;6.590;2023-10-19T04:48:33;99223.19;;;21.90;43.86
67038;BME280;53940;53.204;6.590;2023-10-19T04:51:34;99222.75;;;21.86;43.92
67038;BME280;53940;53.204;6.590;2023-10-19T04:54:36;99233.66;;;21.85;44.20
67038;BME280;53940;53.204;6.590;2023-10-19T04:57:37;99234.84;;;21.82;43.86
67038;BME280;53940;53.204;6.590;2023-10-19T05:00:38;99238.56;;;21.81;44.16
67038;BME280;53940;53.204;6.590;2023-10-19T05:03:38;99229.03;;;21.78;44.23
67038;BME280;53940;53.204;6.590;2023-10-19T05:06:38;99220.34;;;21.76;44.19
67038;BME280;53940;53.204;6.590;2023-10-19T05:09:39;99231.25;;;21.75;44.29
67038;BME280;53940;53.204;6.590;2023-10-19T05:12:39;99228.75;;;21.73;44.02
67038;BME280;53940;53.204;6.590;2023-10-19T05:15:41;99222.75;;;21.71;44.15
67038;BME280;53940;53.204;6.590;2023-10-19T05:18:43;99216.72;;;21.69;44.44
67038;BME280;53940;53.204;6.590;2023-10-19T05:21:43;99222.25;;;21.67;44.45
67038;BME280;53940;53.204;6.590;2023-10-19T05:24:43;99229.47;;;21.67;44.46
67038;BME280;53940;53.204;6.590;2023-10-19T05:27:44;99220.59;;;21.66;44.20
67038;BME280;53940;53.204;6.590;2023-10-19T05:30:45;99218.94;;;21.65;44.23
67038;BME280;53940;53.204;6.590;2023-10-19T05:33:46;99214.59;;;21.64;44.19
67038;BME280;53940;53.204;6.590;2023-10-19T05:36:49;99217.47;;;21.63;44.20
67038;BME280;53940;53.204;6.590;2023-10-19T05:39:49;99225.50;;;21.63;44.16
67038;BME280;53940;53.204;6.590;2023-10-19T05:42:51;99228.38;;;21.61;44.41
67038;BME280;53940;53.204;6.590;2023-10-19T05:45:52;99232.88;;;21.61;44.60
67038;BME280;53940;53.204;6.590;2023-10-19T05:48:52;99240.13;;;21.60;44.59
67038;BME280;53940;53.204;6.590;2023-10-19T05:51:56;99239.47;;;21.58;44.63
67038;BME280;53940;53.204;6.590;2023-10-19T05:54:56;99238.63;;;21.58;44.61
67038;BME280;53940;53.204;6.590;2023-10-19T05:57:59;99237.78;;;21.57;44.35
67038;BME280;53940;53.204;6.590;2023-10-19T06:01:00;99235.09;;;21.57;44.50
67038;BME280;53940;53.204;6.590;2023-10-19T06:04:01;99241.50;;;21.56;44.46
67038;BME280;53940;53.204;6.590;2023-10-19T06:07:01;99241.50;;;21.56;44.66
67038;BME280;53940;53.204;6.590;2023-10-19T06:10:02;99238.00;;;21.56;44.45
67038;BME280;53940;53.204;6.590;2023-10-19T06:13:06;99239.81;;;21.55;44.52
67038;BME280;53940;53.204;6.590;2023-10-19T06:16:09;99250.56;;;21.55;44.71
67038;BME280;53940;53.204;6.590;2023-10-19T06:19:10;99248.88;;;21.54;44.78
67038;BME280;53940;53.204;6.590;2023-10-19T06:22:10;99258.59;;;21.55;44.87
67038;BME280;53940;53.204;6.590;2023-10-19T06:25:10;99251.75;;;21.52;44.57
67038;BME280;53940;53.204;6.590;2023-10-19T06:28:11;99256.28;;;21.52;44.59
67038;BME280;53940;53.204;6.590;2023-10-19T06:31:11;99265.31;;;21.51;44.68
67038;BME280;53940;53.204;6.590;2023-10-19T06:34:12;99264.34;;;21.52;44.84
67038;BME280;53940;53.204;6.590;2023-10-19T06:37:12;99264.50;;;21.50;45.02
67038;BME280;53940;53.204;6.590;2023-10-19T06:40:14;99262.84;;;21.49;44.89
67038;BME280;53940;53.204;6.590;2023-10-19T06:43:15;99262.00;;;21.49;44.90
67038;BME280;53940;53.204;6.590;2023-10-19T06:46:15;99257.66;;;21.48;44.71
67038;BME280;53940;53.204;6.590;2023-10-19T06:49:15;99266.72;;;21.47;44.82
67038;BME280;53940;53.204;6.590;2023-10-19T06:52:16;99277.44;;;21.47;44.95
67038;BME280;53940;53.204;6.590;2023-10-19T06:55:17;99283.81;;;21.46;44.82
67038;BME280;53940;53.204;6.590;2023-10-19T06:58:21;99278.47;;;21.46;45.21
67038;BME280;53940;53.204;6.590;2023-10-19T07:01:21;99282.81;;;21.47;45.04
67038;BME280;53940;53.204;6.590;2023-10-19T07:04:26;99291.66;;;21.47;45.14
67038;BME280;53940;53.204;6.590;2023-10-19T07:07:28;99293.16;;;21.50;45.55
67038;BME280;53940;53.204;6.590;2023-10-19T07:10:28;99295.81;;;21.50;45.36
67038;BME280;53940;53.204;6.590;2023-10-19T07:13:28;99296.84;;;21.49;45.59
67038;BME280;53940;53.204;6.590;2023-10-19T07:16:33;99309.22;;;21.50;45.44
67038;BME280;53940;53.204;6.590;2023-10-19T07:19:33;99299.53;;;21.49;45.24
67038;BME280;53940;53.204;6.590;2023-10-19T07:22:34;99302.38;;;21.47;45.41
67038;BME280;53940;53.204;6.590;2023-10-19T07:25:38;99299.69;;;21.47;45.67
67038;BME280;53940;53.204;6.590;2023-10-19T07:28:43;99295.38;;;21.46;45.62
67038;BME280;53940;53.204;6.590;2023-10-19T07:31:43;99294.53;;;21.46;45.58
67038;BME280;53940;53.204;6.590;2023-10-19T07:34:43;99294.53;;;21.46;45.44
67038;BME280;53940;53.204;6.590;2023-10-19T07:37:44;99292.84;;;21.45;45.57
67038;BME280;53940;53.204;6.590;2023-10-19T07:40:45;99287.69;;;21.43;45.70
67038;BME280;53940;53.204;6.590;2023-10-19T07:43:45;99297.56;;;21.43;45.46
67038;BME280;53940;53.204;6.590;2023-10-19T07:46:46;99297.56;;;21.43;45.49
67038;BME280;53940;53.204;6.590;2023-10-19T07:49:47;99294.91;;;21.43;45.73
67038;BME280;53940;53.204;6.590;2023-10-19T07:52:50;99297.56;;;21.43;45.77
67038;BME280;53940;53.204;6.590;2023-10-19T07:55:51;99293.22;;;21.41;45.83
67038;BME280;53940;53.204;6.590;2023-10-19T07:58:52;99297.56;;;21.43;46.00
67038;BME280;53940;53.204;6.590;2023-10-19T08:01:52;99293.22;;;21.41;45.69
67038;BME280;53940;53.204;6.590;2023-10-19T08:04:53;99296.94;;;21.40;45.88
67038;BME280;53940;53.204;6.590;2023-10-19T08:07:53;99296.94;;;21.40;45.65
67038;BME280;53940;53.204;6.590;2023-10-19T08:10:54;99302.28;;;21.40;46.04
67038;BME280;53940;53.204;6.590;2023-10-19T08:13:54;99303.94;;;21.41;45.73
67038;BME280;53940;53.204;6.590;2023-10-19T08:16:55;99313.00;;;21.40;46.00
67038;BME280;53940;53.204;6.590;2023-10-19T08:19:56;99313.00;;;21.40;45.97
67038;BME280;53940;53.204;6.590;2023-10-19T08:22:59;99311.34;;;21.39;45.88
67038;BME280;53940;53.204;6.590;2023-10-19T08:26:03;99313.19;;;21.39;45.85
67038;BME280;53940;53.204;6.590;2023-10-19T08:29:05;99315.03;;;21.38;45.90
67038;BME280;53940;53.204;6.590;2023-10-19T08:32:12;99313.34;;;21.37;46.00
67038;BME280;53940;53.204;6.590;2023-10-19T08:35:15;99316.03;;;21.37;45.88
67038;BME280;53940;53.204;6.590;2023-10-19T08:38:18;99311.69;;;21.36;45.84
67038;BME280;53940;53.204;6.590;2023-10-19T08:41:18;99322.41;;;21.36;46.02
67038;BME280;53940;53.204;6.590;2023-10-19T08:44:19;99315.41;;;21.35;45.78
67038;BME280;53940;53.204;6.590;2023-10-19T08:47:20;99319.91;;;21.35;45.79
67038;BME280;53940;53.204;6.590;2023-10-19T08:50:21;99318.09;;;21.35;45.93
67038;BME280;53940;53.204;6.590;2023-10-19T08:53:24;99319.91;;;21.35;45.92
67038;BME280;53940;53.204;6.590;2023-10-19T08:56:24;99320.75;;;21.35;46.18
67038;BME280;53940;53.204;6.590;2023-10-19T08:59:25;99320.75;;;21.35;46.17
67038;BME280;53940;53.204;6.590;2023-10-19T09:02:27;99326.13;;;21.35;46.06
67038;BME280;53940;53.204;6.590;2023-10-19T09:05:27;99326.13;;;21.35;46.04
67038;BME280;53940;53.204;6.590;2023-10-19T09:08:28;99315.41;;;21.35;45.82
67038;BME280;53940;53.204;6.590;2023-10-19T09:11:38;99320.75;;;21.35;46.12
67038;BME280;53940;53.204;6.590;2023-10-19T09:14:38;99323.44;;;21.35;45.99
67038;BME280;53940;53.204;6.590;2023-10-19T09:17:43;99315.41;;;21.35;46.03
67038;BME280;53940;53.204;6.590;2023-10-19T09:20:48;99322.41;;;21.36;46.02
67038;BME280;53940;53.204;6.590;2023-10-19T09:24:07;99317.91;;;21.37;45.88
67038;BME280;53940;53.204;6.590;2023-10-19T09:27:09;99315.22;;;21.37;46.01
67038;BME280;53940;53.204;6.590;2023-10-19T09:30:12;99317.06;;;21.36;46.18
67038;BME280;53940;53.204;6.590;2023-10-19T09:33:13;99317.06;;;21.36;46.16
67038;BME280;53940;53.204;6.590;2023-10-19T09:36:17;99313.34;;;21.37;46.30
67038;BME280;53940;53.204;6.590;2023-10-19T09:39:18;99308.00;;;21.37;45.97
67038;BME280;53940;53.204;6.590;2023-10-19T09:42:19;99313.34;;;21.37;46.23
67038;BME280;53940;53.204;6.590;2023-10-19T09:45:19;99307.19;;;21.37;46.26
67038;BME280;53940;53.204;6.590;2023-10-19T09:48:24;99306.34;;;21.36;46.08
67038;BME280;53940;53.204;6.590;2023-10-19T09:51:25;99311.69;;;21.36;46.27
67038;BME280;53940;53.204;6.590;2023-10-19T09:54:34;99308.38;;;21.34;46.32
67038;BME280;53940;53.204;6.590;2023-10-19T10:00:48;99306.34;;;21.36;46.12
67038;BME280;53940;53.204;6.590;2023-10-19T10:03:52;99309.03;;;21.36;46.13
67038;BME280;53940;53.204;6.590;2023-10-19T10:09:54;99300.97;;;21.36;46.24
67038;BME280;53940;53.204;6.590;2023-10-19T10:12:55;99306.34;;;21.36;46.09
67038;BME280;53940;53.204;6.590;2023-10-19T10:15:56;99291.91;;;21.37;46.27
67038;BME280;53940;53.204;6.590;2023-10-19T10:18:59;99302.66;;;21.37;46.26
67038;BME280;53940;53.204;6.590;2023-10-19T10:22:10;99298.13;;;21.38;46.18
67038;BME280;53940;53.204;6.590;2023-10-19T10:25:27;99296.25;;;21.38;46.21
67038;BME280;53940;53.204;6.590;2023-10-19T10:28:29;99297.94;;;21.39;46.42
67038;BME280;53940;53.204;6.590;2023-10-19T10:31:34;99295.28;;;21.39;46.15
67038;BME280;53940;53.204;6.590;2023-10-19T10:37:37;99282.88;;;21.38;46.43
67038;BME280;53940;53.204;6.590;2023-10-19T10:40:45;99280.38;;;21.37;46.08
67038;BME280;53940;53.204;6.590;2023-10-19T10:43:50;99283.25;;;21.35;46.06
67038;BME280;53940;53.204;6.590;2023-10-19T10:46:52;99282.78;;;21.32;46.23
67038;BME280;53940;53.204;6.590;2023-10-19T10:50:00;99289.78;;;21.33;46.43
67038;BME280;53940;53.204;6.590;2023-10-19T10:53:01;99279.06;;;21.33;46.15
67038;BME280;53940;53.204;6.590;2023-10-19T10:56:01;99282.78;;;21.32;46.47
67038;BME280;53940;53.204;6.590;2023-10-19T10:59:12;99285.63;;;21.30;46.24
67038;BME280;53940;53.204;6.590;2023-10-19T11:02:17;99283.97;;;21.29;46.22
67038;BME280;53940;53.204;6.590;2023-10-19T11:05:20;99289.31;;;21.29;46.31
67038;BME280;53940;53.204;6.590;2023-10-19T11:08:24;99300.03;;;21.29;46.38
67038;BME280;53940;53.204;6.590;2023-10-19T11:11:24;99304.56;;;21.28;46.20
67038;BME280;53940;53.204;6.590;2023-10-19T11:14:25;99304.56;;;21.28;46.21
67038;BME280;53940;53.204;6.590;2023-10-19T11:17:27;99304.75;;;21.27;46.54
67038;BME280;53940;53.204;6.590;2023-10-19T11:20:30;99309.09;;;21.28;46.31
67038;BME280;53940;53.204;6.590;2023-10-19T11:23:39;99297.72;;;21.26;46.34
67038;BME280;53940;53.204;6.590;2023-10-19T11:26:40;99295.72;;;21.28;46.38
67038;BME280;53940;53.204;6.590;2023-10-19T11:29:53;99305.41;;;21.29;46.28
67038;BME280;53940;53.204;6.590;2023-10-19T11:32:55;99298.19;;;21.30;46.44
67038;BME280;53940;53.204;6.590;2023-10-19T11:36:02;99294.69;;;21.29;46.58
67038;BME280;53940;53.204;6.590;2023-10-19T11:39:02;99307.06;;;21.30;46.58
67038;BME280;53940;53.204;6.590;2023-10-19T11:42:04;99304.38;;;21.30;47.07
67038;BME280;53940;53.204;6.590;2023-10-19T11:45:05;99303.38;;;21.31;46.86
67038;BME280;53940;53.204;6.590;2023-10-19T11:48:06;99301.72;;;21.30;47.26
67038;BME280;53940;53.204;6.590;2023-10-19T11:51:08;99298.00;;;21.31;46.85
67038;BME280;53940;53.204;6.590;2023-10-19T11:54:11;99297.19;;;21.31;47.24
67038;BME280;53940;53.204;6.590;2023-10-19T11:57:12;99284.59;;;21.31;46.95
67038;BME280;53940;53.204;6.590;2023-10-19T12:00:13;99292.66;;;21.31;47.07
67038;BME280;53940;53.204;6.590;2023-10-19T12:03:24;99289.97;;;21.31;47.05
67038;BME280;53940;53.204;6.590;2023-10-19T12:06:25;99276.56;;;21.31;47.05
67038;BME280;53940;53.204;6.590;2023-10-19T12:09:25;99282.94;;;21.30;47.26
67038;BME280;53940;53.204;6.590;2023-10-19T12:12:26;99285.63;;;21.30;46.88
67038;BME280;53940;53.204;6.590;2023-10-19T12:15:26;99297.38;;;21.29;47.33
67038;BME280;53940;53.204;6.590;2023-10-19T12:18:27;99285.00;;;21.28;46.97
67038;BME280;53940;53.204;6.590;2023-10-19T12:21:28;99268.25;;;21.26;47.27
67038;BME280;53940;53.204;6.590;2023-10-19T12:24:31;99264.75;;;21.25;47.40
67038;BME280;53940;53.204;6.590;2023-10-19T12:27:31;99263.09;;;21.24;47.13
67038;BME280;53940;53.204;6.590;2023-10-19T12:30:31;99262.06;;;21.25;47.08
67038;BME280;53940;53.204;6.590;2023-10-19T12:33:32;99277.28;;;21.25;47.05
67038;BME280;53940;53.204;6.590;2023-10-19T12:36:34;99279.16;;;21.24;47.18
67038;BME280;53940;53.204;6.590;2023-10-19T12:39:35;99284.53;;;21.24;46.91
67038;BME280;53940;53.204;6.590;2023-10-19T12:42:35;99285.50;;;21.23;46.99
67038;BME280;53940;53.204;6.590;2023-10-19T12:45:36;99283.84;;;21.22;47.04
67038;BME280;53940;53.204;6.590;2023-10-19T12:48:37;99278.66;;;21.21;47.08
67038;BME280;53940;53.204;6.590;2023-10-19T12:51:37;99278.50;;;21.22;47.07
67038;BME280;53940;53.204;6.590;2023-10-19T12:54:38;99275.97;;;21.21;47.28
67038;BME280;53940;53.204;6.590;2023-10-19T12:57:39;99267.78;;;21.22;47.12
67038;BME280;53940;53.204;6.590;2023-10-19T13:00:39;99257.22;;;21.21;47.05
67038;BME280;53940;53.204;6.590;2023-10-19T13:03:48;99254.56;;;21.21;47.14
67038;BME280;53940;53.204;6.590;2023-10-19T13:06:51;99261.59;;;21.22;46.97
67038;BME280;53940;53.204;6.590;2023-10-19T13:09:52;99269.63;;;21.22;47.00
67038;BME280;53940;53.204;6.590;2023-10-19T13:12:52;99272.31;;;21.22;46.98
67038;BME280;53940;53.204;6.590;2023-10-19T13:15:54;99261.59;;;21.22;47.18
67038;BME280;53940;53.204;6.590;2023-10-19T13:18:54;99247.53;;;21.20;46.85
67038;BME280;53940;53.204;6.590;2023-10-19T13:21:54;99251.22;;;21.19;47.34
67038;BME280;53940;53.204;6.590;2023-10-19T13:24:57;99247.53;;;21.20;47.21
67038;BME280;53940;53.204;6.590;2023-10-19T13:27:58;99253.75;;;21.20;47.09
67038;BME280;53940;53.204;6.590;2023-10-19T13:30:58;99247.53;;;21.20;47.06
67038;BME280;53940;53.204;6.590;2023-10-19T13:33:58;99247.53;;;21.20;47.20
67038;BME280;53940;53.204;6.590;2023-10-19T13:36:59;99245.88;;;21.19;46.84
67038;BME280;53940;53.204;6.590;2023-10-19T13:40:00;99245.88;;;21.19;47.14
67038;BME280;53940;53.204;6.590;2023-10-19T13:43:01;99245.22;;;21.17;47.23
67038;BME280;53940;53.204;6.590;2023-10-19T13:46:04;99240.91;;;21.16;47.22
67038;BME280;53940;53.204;6.590;2023-10-19T13:49:05;99246.25;;;21.16;47.07
67038;BME280;53940;53.204;6.590;2023-10-19T13:52:06;99244.56;;;21.14;46.83
67038;BME280;53940;53.204;6.590;2023-10-19T13:55:09;99253.63;;;21.13;47.13
67038;BME280;53940;53.204;6.590;2023-10-19T13:58:12;99241.25;;;21.12;46.87
67038;BME280;53940;53.204;6.590;2023-10-19T14:01:13;99237.75;;;21.12;46.83
67038;BME280;53940;53.204;6.590;2023-10-19T14:04:13;99239.59;;;21.11;46.92
67038;BME280;53940;53.204;6.590;2023-10-19T14:07:14;99239.59;;;21.11;46.89
67038;BME280;53940;53.204;6.590;2023-10-19T14:10:15;99237.06;;;21.10;47.32
67038;BME280;53940;53.204;6.590;2023-10-19T14:13:16;99243.28;;;21.10;47.04
67038;BME280;53940;53.204;6.590;2023-10-19T14:16:16;99250.28;;;21.11;47.19
67038;BME280;53940;53.204;6.590;2023-10-19T14:19:17;99243.28;;;21.10;47.39
67038;BME280;53940;53.204;6.590;2023-10-19T14:22:17;99242.44;;;21.10;47.18
67038;BME280;53940;53.204;6.590;2023-10-19T14:25:19;99237.25;;;21.08;47.06
67038;BME280;53940;53.204;6.590;2023-10-19T14:28:22;99234.56;;;21.08;47.38
67038;BME280;53940;53.204;6.590;2023-10-19T14:31:22;99234.56;;;21.08;47.02
67038;BME280;53940;53.204;6.590;2023-10-19T14:34:22;99238.28;;;21.07;47.38
67038;BME280;53940;53.204;6.590;2023-10-19T14:37:23;99225.09;;;21.06;47.17
67038;BME280;53940;53.204;6.590;2023-10-19T14:40:25;99229.41;;;21.07;46.94
67038;BME280;53940;53.204;6.590;2023-10-19T14:43:26;99227.56;;;21.07;46.87
67038;BME280;53940;53.204;6.590;2023-10-19T14:46:29;99225.91;;;21.06;47.28
67038;BME280;53940;53.204;6.590;2023-10-19T14:49:30;99235.59;;;21.07;47.14
67038;BME280;53940;53.204;6.590;2023-10-19T14:52:30;99235.59;;;21.07;47.21
67038;BME280;53940;53.204;6.590;2023-10-19T14:55:31;99227.75;;;21.06;47.27
67038;BME280;53940;53.204;6.590;2023-10-19T14:58:31;99217.22;;;21.04;46.93
67038;BME280;53940;53.204;6.590;2023-10-19T15:01:32;99218.25;;;21.03;47.26
67038;BME280;53940;53.204;6.590;2023-10-19T15:04:32;99205.03;;;21.02;47.05
67038;BME280;53940;53.204;6.590;2023-10-19T15:07:32;99201.50;;;21.01;47.25
67038;BME280;53940;53.204;6.590;2023-10-19T15:10:34;99205.19;;;21.00;47.17
67038;BME280;53940;53.204;6.590;2023-10-19T15:13:35;99192.81;;;20.99;47.33
67038;BME280;53940;53.204;6.590;2023-10-19T15:16:36;99199.03;;;20.99;47.01
67038;BME280;53940;53.204;6.590;2023-10-19T15:19:37;99201.88;;;20.98;47.02
67038;BME280;53940;53.204;6.590;2023-10-19T15:22:38;99206.38;;;20.97;47.02
67038;BME280;53940;53.204;6.590;2023-10-19T15:25:38;99205.56;;;20.97;47.30
67038;BME280;53940;53.204;6.590;2023-10-19T15:28:40;99205.56;;;20.97;47.24
67038;BME280;53940;53.204;6.590;2023-10-19T15:31:40;99207.56;;;20.95;46.89
67038;BME280;53940;53.204;6.590;2023-10-19T15:34:41;99218.28;;;20.95;47.00
67038;BME280;53940;53.204;6.590;2023-10-19T15:37:44;99212.13;;;20.94;47.26
67038;BME280;53940;53.204;6.590;2023-10-19T15:40:48;99206.94;;;20.93;47.03
67038;BME280;53940;53.204;6.590;2023-10-19T15:43:49;99198.91;;;20.93;47.32
67038;BME280;53940;53.204;6.590;2023-10-19T15:46:50;99209.63;;;20.93;47.19
67038;BME280;53940;53.204;6.590;2023-10-19T15:49:54;99202.59;;;20.92;47.19
67038;BME280;53940;53.204;6.590;2023-10-19T15:52:56;99201.75;;;20.91;47.05
67038;BME280;53940;53.204;6.590;2023-10-19T15:55:57;99194.75;;;20.90;46.97
67038;BME280;53940;53.204;6.590;2023-10-19T15:58:57;99188.53;;;20.90;47.14
67038;BME280;53940;53.204;6.590;2023-10-19T16:01:57;99182.38;;;20.89;47.25
67038;BME280;53940;53.204;6.590;2023-10-19T16:04:58;99193.91;;;20.90;47.06
67038;BME280;53940;53.204;6.590;2023-10-19T16:07:58;99196.78;;;20.88;47.00
67038;BME280;53940;53.204;6.590;2023-10-19T16:10:58;99186.25;;;20.86;47.26
67038;BME280;53940;53.204;6.590;2023-10-19T16:13:59;99191.59;;;20.86;47.26